Terminal Aerodrome Forecast
Issued by NWS Memphis, TN

Home | Current Version | Previous Version | Text Only | Print | Product List | Glossary On
Versions: 1 2 3 4 5 6 7 8 9 10 11 12 13 14 15 16
000
FTUS44 KMEG 031738
TAFJBR
TAF
KJBR 031738Z 0318/0418 23010KT 4SM BR OVC003
     FM032000 23012G18KT 6SM BR OVC007
     FM040000 25010KT 4SM -RA BR VCTS OVC003CB
     FM040300 30010KT 2SM -TSRA BR OVC001CB
     FM040500 36010G15KT 3SM -RA OVC003
     FM040800 03015G20KT 3SM -RA OVC003
     FM041600 03015G20KT 2SM -FZRAPL OVC003=

USA.gov is the U.S. government's official web portal to all federal, state and local government web resources and services.